createdAt,value
2018-07-06T00:00:16.699Z,58.70
2018-07-06T00:02:56.392Z,58.70
2018-07-06T00:05:36.112Z,58.80
2018-07-06T00:08:15.798Z,58.80
2018-07-06T00:10:55.648Z,58.80
2018-07-06T00:13:35.271Z,58.80
2018-07-06T00:16:15.067Z,58.90
2018-07-06T00:18:54.804Z,58.90
2018-07-06T00:21:34.608Z,58.80
2018-07-06T00:24:14.580Z,58.90
2018-07-06T00:26:54.473Z,58.80
2018-07-06T00:29:34.393Z,58.80
2018-07-06T00:32:14.056Z,58.90
2018-07-06T00:34:53.862Z,58.80
2018-07-06T00:37:33.409Z,58.80
2018-07-06T00:40:13.122Z,58.80
2018-07-06T00:42:52.820Z,58.70
2018-07-06T00:45:32.512Z,58.70
2018-07-06T00:48:12.025Z,58.80
2018-07-06T00:50:51.912Z,58.80
2018-07-06T00:53:31.581Z,58.70
2018-07-06T00:56:11.260Z,58.80
2018-07-06T00:58:51.078Z,58.80
2018-07-06T01:01:30.783Z,58.70
2018-07-06T01:04:10.605Z,58.60
2018-07-06T01:06:50.380Z,58.60
2018-07-06T01:09:30.240Z,58.70
2018-07-06T01:12:15.536Z,58.70
2018-07-06T01:14:55.328Z,58.50
2018-07-06T01:17:35.182Z,58.80
2018-07-06T01:20:15.045Z,58.70
2018-07-06T01:22:54.544Z,58.60
2018-07-06T01:25:34.137Z,58.50
2018-07-06T01:28:13.593Z,58.40
2018-07-06T01:30:53.280Z,58.30
2018-07-06T01:33:32.996Z,58.40
2018-07-06T01:36:12.965Z,58.30
2018-07-06T01:38:52.661Z,58.50
2018-07-06T01:41:32.428Z,58.40
2018-07-06T01:44:12.148Z,58.50
2018-07-06T01:46:51.904Z,58.60
2018-07-06T01:49:31.628Z,58.50
2018-07-06T01:54:45.274Z,58.50
2018-07-06T01:57:24.921Z,58.50
2018-07-06T02:00:04.715Z,58.50
2018-07-06T02:02:44.680Z,58.50
2018-07-06T02:05:24.557Z,58.60
2018-07-06T02:08:04.760Z,58.60
2018-07-06T02:10:44.341Z,58.40
2018-07-06T02:13:23.989Z,58.50
2018-07-06T02:18:37.608Z,58.60
2018-07-06T02:23:51.360Z,58.50
2018-07-06T02:26:31.144Z,58.50
2018-07-06T02:29:11.052Z,58.50
2018-07-06T02:31:50.788Z,58.50
2018-07-06T02:34:30.571Z,58.40
2018-07-06T02:42:18.220Z,58.50
2018-07-06T02:44:57.992Z,58.50
2018-07-06T02:47:37.691Z,58.50
2018-07-06T02:50:17.184Z,58.60
2018-07-06T02:52:56.811Z,58.60
2018-07-06T02:55:36.570Z,58.70
2018-07-06T02:58:16.280Z,58.50
2018-07-06T03:00:56.035Z,58.50
2018-07-06T03:06:09.723Z,58.60
2018-07-06T03:08:49.544Z,58.60
2018-07-06T03:11:29.405Z,58.60
2018-07-06T03:14:09.180Z,58.50
2018-07-06T03:16:49.031Z,58.40
2018-07-06T03:19:28.959Z,58.40
2018-07-06T03:22:08.664Z,58.40
2018-07-06T03:24:48.308Z,58.40
2018-07-06T03:30:01.811Z,58.30
2018-07-06T03:32:41.556Z,58.20
2018-07-06T03:35:21.349Z,58.20
2018-07-06T03:38:01.124Z,58.10
2018-07-06T03:40:41.068Z,58.10
2018-07-06T03:43:20.675Z,58.20
2018-07-06T03:46:00.902Z,58.30
2018-07-06T03:48:40.790Z,58.30
2018-07-06T03:51:26.764Z,58.20
2018-07-06T03:54:06.335Z,58.40
2018-07-06T03:56:46.267Z,58.30
2018-07-06T03:59:25.884Z,58.40
2018-07-06T04:02:05.403Z,58.40
2018-07-06T04:04:45.132Z,58.30
2018-07-06T04:07:25.009Z,58.30
2018-07-06T04:10:04.637Z,58.30
2018-07-06T04:12:44.544Z,58.20
2018-07-06T04:15:24.369Z,58.10
2018-07-06T04:18:04.116Z,58.10
2018-07-06T04:20:44.012Z,58.10
2018-07-06T04:23:23.775Z,58.10
2018-07-06T04:28:37.203Z,58.20
2018-07-06T04:31:16.925Z,58.20
2018-07-06T04:33:56.717Z,58.30
2018-07-06T04:36:36.528Z,58.30
2018-07-06T04:39:16.098Z,58.30
2018-07-06T04:44:29.613Z,59.00
2018-07-06T04:47:09.427Z,58.30
2018-07-06T04:49:49.252Z,58.40
2018-07-06T04:52:29.197Z,58.40
2018-07-06T04:55:08.803Z,58.20
2018-07-06T04:57:48.283Z,58.30
2018-07-06T05:00:27.906Z,58.30
2018-07-06T05:03:07.491Z,58.20
2018-07-06T05:05:47.128Z,58.20
2018-07-06T05:08:27.629Z,58.10
2018-07-06T05:11:07.204Z,58.10
2018-07-06T05:13:46.792Z,58.20
2018-07-06T05:16:26.612Z,58.00
2018-07-06T05:19:06.521Z,58.10
2018-07-06T05:21:46.629Z,58.10
2018-07-06T05:24:26.543Z,58.10
2018-07-06T05:27:06.345Z,58.00
2018-07-06T05:29:46.215Z,58.20
2018-07-06T05:32:26.061Z,58.30
2018-07-06T05:35:06.049Z,58.30
2018-07-06T05:37:45.876Z,58.30
2018-07-06T05:40:25.604Z,58.50
2018-07-06T05:43:05.217Z,58.50
2018-07-06T05:45:45.085Z,58.40
2018-07-06T05:48:25.096Z,58.50
2018-07-06T05:51:04.860Z,58.50
2018-07-06T05:53:44.351Z,58.30
2018-07-06T05:56:30.477Z,58.40
2018-07-06T05:59:10.235Z,58.20
2018-07-06T06:01:50.209Z,58.30
2018-07-06T06:04:30.142Z,58.30
2018-07-06T06:07:09.953Z,58.30
2018-07-06T06:09:38.580Z,58.30
2018-07-06T06:12:07.210Z,58.30
2018-07-06T06:17:03.853Z,58.40
2018-07-06T06:19:33.028Z,58.40
2018-07-06T06:22:01.584Z,58.30
2018-07-06T06:24:30.115Z,58.40
2018-07-06T06:26:58.637Z,58.30
2018-07-06T06:29:33.799Z,58.40
2018-07-06T06:32:03.742Z,58.50
2018-07-06T06:34:32.332Z,58.50
2018-07-06T06:37:01.208Z,58.40
2018-07-06T06:39:30.151Z,58.40
2018-07-06T06:41:58.680Z,58.40
2018-07-06T06:44:27.662Z,58.50
2018-07-06T06:46:56.911Z,58.40
2018-07-06T06:49:25.604Z,58.30
2018-07-06T06:51:54.540Z,58.50
2018-07-06T06:54:23.180Z,58.40
2018-07-06T06:56:52.864Z,58.60
2018-07-06T06:59:22.265Z,59.20
2018-07-06T07:01:50.867Z,59.10
2018-07-06T07:04:19.550Z,60.50
2018-07-06T07:06:48.188Z,60.70
2018-07-06T07:09:16.759Z,60.90
2018-07-06T07:11:45.984Z,61.30
2018-07-06T07:14:15.026Z,61.50
2018-07-06T07:16:43.545Z,61.70
2018-07-06T07:19:12.078Z,62.00
2018-07-06T07:21:40.741Z,61.70
2018-07-06T07:24:10.533Z,63.00
2018-07-06T07:26:39.161Z,62.60
2018-07-06T07:29:07.768Z,62.60
2018-07-06T07:31:36.353Z,62.70
2018-07-06T07:34:05.001Z,62.80
2018-07-06T07:36:33.653Z,63.20
2018-07-06T07:39:02.340Z,62.80
2018-07-06T07:41:30.863Z,62.60
2018-07-06T07:43:59.460Z,62.90
2018-07-06T07:46:28.083Z,63.70
2018-07-06T07:52:03.196Z,62.90
2018-07-06T07:54:41.853Z,63.10
2018-07-06T07:57:11.099Z,63.20
2018-07-06T07:59:39.880Z,63.30
2018-07-06T08:02:08.433Z,64.30
2018-07-06T08:04:37.709Z,63.60
2018-07-06T08:07:06.247Z,64.30
2018-07-06T08:09:35.700Z,63.80
2018-07-06T08:12:04.807Z,63.70
2018-07-06T08:14:34.245Z,63.70
2018-07-06T08:17:02.713Z,64.10
2018-07-06T08:19:31.235Z,64.00
2018-07-06T08:21:59.769Z,63.70
2018-07-06T08:24:28.845Z,63.70
2018-07-06T08:26:57.384Z,62.70
2018-07-06T08:29:25.939Z,63.10
2018-07-06T08:31:54.498Z,63.40
2018-07-06T08:34:34.294Z,63.50
2018-07-06T08:37:45.531Z,63.50
2018-07-06T08:40:14.360Z,63.40
2018-07-06T08:42:45.860Z,63.20
2018-07-06T08:45:14.812Z,63.60
2018-07-06T08:47:44.049Z,63.50
2018-07-06T08:52:42.129Z,62.60
2018-07-06T08:55:10.716Z,63.20
2018-07-06T08:57:40.157Z,63.20
2018-07-06T09:00:09.984Z,63.30
2018-07-06T09:02:45.374Z,63.30
2018-07-06T09:05:14.169Z,63.10
2018-07-06T09:07:42.774Z,63.20
2018-07-06T09:10:11.232Z,63.30
2018-07-06T09:12:40.217Z,63.10
2018-07-06T09:15:09.562Z,62.90
2018-07-06T09:17:38.166Z,62.90
2018-07-06T09:20:06.812Z,62.90
2018-07-06T09:22:35.188Z,62.90
2018-07-06T09:25:05.075Z,63.70
2018-07-06T09:27:33.809Z,63.40
2018-07-06T09:30:02.328Z,63.80
2018-07-06T09:32:30.879Z,64.30
2018-07-06T09:34:59.453Z,64.10
2018-07-06T09:37:28.169Z,64.00
2018-07-06T09:39:56.689Z,63.90
2018-07-06T09:42:25.203Z,63.40
2018-07-06T09:44:53.738Z,63.50
2018-07-06T09:47:22.336Z,63.70
2018-07-06T09:49:50.901Z,63.60
2018-07-06T09:52:19.390Z,63.80
2018-07-06T09:54:47.939Z,66.30
2018-07-06T09:57:16.491Z,65.30
2018-07-06T09:59:44.980Z,65.70
2018-07-06T10:02:13.515Z,64.90
2018-07-06T10:04:42.046Z,64.20
2018-07-06T10:07:10.555Z,64.00
2018-07-06T10:12:07.503Z,63.80
2018-07-06T10:14:36.008Z,65.40
2018-07-06T10:19:32.862Z,64.10
2018-07-06T10:22:01.413Z,64.50
2018-07-06T10:24:29.938Z,63.70
2018-07-06T10:26:58.458Z,65.30
2018-07-06T10:30:38.143Z,65.10
2018-07-06T10:35:36.276Z,67.10
2018-07-06T10:38:05.700Z,64.40
2018-07-06T10:40:35.005Z,64.50
2018-07-06T10:43:03.549Z,62.50
2018-07-06T10:45:32.107Z,64.10
2018-07-06T10:48:00.613Z,63.20
2018-07-06T10:50:29.189Z,64.30
2018-07-06T10:52:57.744Z,63.00
2018-07-06T10:55:26.321Z,62.80
2018-07-06T10:57:54.843Z,63.40
2018-07-06T11:00:23.428Z,63.80
2018-07-06T11:02:52.011Z,63.40
2018-07-06T11:05:20.552Z,62.50
2018-07-06T11:07:49.303Z,64.20
2018-07-06T11:10:17.877Z,62.90
2018-07-06T11:12:46.411Z,62.80
2018-07-06T11:15:14.980Z,63.10
2018-07-06T11:17:43.740Z,62.60
2018-07-06T11:20:12.739Z,62.40
2018-07-06T11:22:41.317Z,62.30
2018-07-06T11:25:09.885Z,62.10
2018-07-06T11:27:38.427Z,61.60
2018-07-06T11:30:07.260Z,62.00
2018-07-06T11:32:35.815Z,61.20
2018-07-06T11:35:04.384Z,61.20
2018-07-06T11:37:32.921Z,61.40
2018-07-06T11:42:29.733Z,62.20
2018-07-06T11:44:58.462Z,62.30
2018-07-06T11:47:26.944Z,62.50
2018-07-06T11:49:55.488Z,62.30
2018-07-06T11:52:24.184Z,62.90
2018-07-06T11:54:52.769Z,62.90
2018-07-06T11:57:21.298Z,63.20
2018-07-06T11:59:49.812Z,63.20
2018-07-06T12:02:18.307Z,63.40
2018-07-06T12:04:46.857Z,63.00
2018-07-06T12:07:15.361Z,63.20
2018-07-06T12:12:12.069Z,62.80
2018-07-06T12:14:40.644Z,62.40
2018-07-06T12:17:09.189Z,62.10
2018-07-06T12:19:38.332Z,61.70
2018-07-06T12:22:06.841Z,61.50
2018-07-06T12:24:35.401Z,61.30
2018-07-06T12:27:04.057Z,61.70
2018-07-06T12:29:32.585Z,61.50
2018-07-06T12:32:01.125Z,61.00
2018-07-06T12:34:29.637Z,61.20
2018-07-06T12:36:58.211Z,61.00
2018-07-06T12:39:26.764Z,60.60
2018-07-06T12:41:55.262Z,60.60
2018-07-06T12:44:23.784Z,60.30
2018-07-06T12:46:52.317Z,60.60
2018-07-06T12:49:20.909Z,60.50
2018-07-06T12:51:49.518Z,60.20
2018-07-06T12:54:18.065Z,59.80
2018-07-06T12:56:47.459Z,59.30
2018-07-06T12:59:15.995Z,59.30
2018-07-06T13:01:44.542Z,58.80
2018-07-06T13:04:13.154Z,58.50
2018-07-06T13:06:41.689Z,58.60
2018-07-06T13:09:10.192Z,58.50
2018-07-06T13:11:39.279Z,58.50
2018-07-06T13:14:07.945Z,58.80
2018-07-06T13:19:05.500Z,58.30
2018-07-06T13:21:34.072Z,58.70
2018-07-06T13:24:02.720Z,58.70
2018-07-06T13:26:31.313Z,58.60
2018-07-06T13:29:00.413Z,59.60
2018-07-06T13:31:29.071Z,59.00
2018-07-06T13:33:57.644Z,59.20
2018-07-06T13:36:26.144Z,59.10
2018-07-06T13:38:54.704Z,58.80
2018-07-06T13:41:23.219Z,58.60
2018-07-06T13:43:52.203Z,58.80
2018-07-06T13:46:20.773Z,58.50
2018-07-06T13:48:49.928Z,58.60
2018-07-06T13:51:19.077Z,58.60
2018-07-06T13:53:48.256Z,58.10
2018-07-06T13:56:16.863Z,58.50
2018-07-06T13:58:45.477Z,58.60
2018-07-06T14:01:14.088Z,58.60
2018-07-06T14:03:42.593Z,58.60
2018-07-06T14:06:11.236Z,58.50
2018-07-06T14:08:39.813Z,58.80
2018-07-06T14:11:08.320Z,58.50
2018-07-06T14:13:37.558Z,58.20
2018-07-06T14:16:06.120Z,58.30
2018-07-06T14:18:34.704Z,58.40
2018-07-06T14:21:03.298Z,58.60
2018-07-06T14:23:31.812Z,58.70
2018-07-06T14:26:00.348Z,58.90
2018-07-06T14:28:29.046Z,58.40
2018-07-06T14:30:57.691Z,59.10
2018-07-06T14:33:26.275Z,58.10
2018-07-06T14:38:23.110Z,57.80
2018-07-06T14:40:51.671Z,57.70
2018-07-06T14:43:20.299Z,58.00
2018-07-06T14:45:48.819Z,57.60
2018-07-06T14:48:17.457Z,57.60
2018-07-06T14:50:46.208Z,57.60
2018-07-06T14:53:14.877Z,57.40
2018-07-06T14:58:12.735Z,57.80
2018-07-06T15:00:41.390Z,57.70
2018-07-06T15:03:10.161Z,57.20
2018-07-06T15:05:38.803Z,57.30
2018-07-06T15:08:07.826Z,57.00
2018-07-06T15:10:37.101Z,57.70
2018-07-06T15:13:06.023Z,57.20
2018-07-06T15:15:35.425Z,56.80
2018-07-06T15:18:03.970Z,57.30
2018-07-06T15:20:39.267Z,56.90
2018-07-06T15:23:07.792Z,57.30
2018-07-06T15:25:36.352Z,56.80
2018-07-06T15:28:04.991Z,57.70
2018-07-06T15:30:33.650Z,57.10
2018-07-06T15:33:02.172Z,57.70
2018-07-06T15:35:30.765Z,57.80
2018-07-06T15:37:59.317Z,57.30
2018-07-06T15:40:28.736Z,56.70
2018-07-06T15:42:57.300Z,56.40
2018-07-06T15:45:25.806Z,56.40
2018-07-06T15:47:55.082Z,56.40
2018-07-06T15:50:23.603Z,56.40
2018-07-06T15:52:52.217Z,56.20
2018-07-06T15:55:20.949Z,56.40
2018-07-06T15:57:49.580Z,56.20
2018-07-06T16:00:18.281Z,55.80
2018-07-06T16:02:47.396Z,54.70
2018-07-06T16:05:15.941Z,55.20
2018-07-06T16:07:44.512Z,55.20
2018-07-06T16:10:13.111Z,55.80
2018-07-06T16:12:41.630Z,55.10
2018-07-06T16:15:10.210Z,55.40
2018-07-06T16:17:39.420Z,55.60
2018-07-06T16:20:07.978Z,55.20
2018-07-06T16:22:36.509Z,55.00
2018-07-06T16:25:05.092Z,54.10
2018-07-06T16:27:33.889Z,53.90
2018-07-06T16:30:02.444Z,53.90
2018-07-06T16:32:30.957Z,53.70
2018-07-06T16:34:59.566Z,54.60
2018-07-06T16:37:28.144Z,54.90
2018-07-06T16:39:56.764Z,55.30
2018-07-06T16:42:25.295Z,55.80
2018-07-06T16:44:53.832Z,55.90
2018-07-06T16:47:23.130Z,55.90
2018-07-06T16:49:51.828Z,56.30
2018-07-06T16:52:20.716Z,57.20
2018-07-06T16:54:49.119Z,57.50
2018-07-06T16:57:17.649Z,57.60
2018-07-06T16:59:46.208Z,57.70
2018-07-06T17:04:42.951Z,56.90
2018-07-06T17:07:11.545Z,56.90
2018-07-06T17:09:40.074Z,56.60
2018-07-06T17:12:08.612Z,56.40
2018-07-06T17:14:37.119Z,56.20
2018-07-06T17:19:33.796Z,56.30
2018-07-06T17:22:02.373Z,56.20
2018-07-06T17:24:30.904Z,56.30
2018-07-06T17:26:59.432Z,56.30
2018-07-06T17:29:28.818Z,56.30
2018-07-06T17:31:57.363Z,56.20
2018-07-06T17:34:25.847Z,56.10
2018-07-06T17:36:54.680Z,56.00
2018-07-06T17:39:23.180Z,56.00
2018-07-06T17:41:51.725Z,56.00
2018-07-06T17:44:20.314Z,55.90
2018-07-06T17:46:48.752Z,55.90
2018-07-06T17:49:17.241Z,55.90
2018-07-06T17:51:45.984Z,55.90
2018-07-06T17:54:14.668Z,56.00
2018-07-06T17:56:43.203Z,55.90
2018-07-06T17:59:11.742Z,55.80
2018-07-06T18:01:40.305Z,55.90
2018-07-06T18:04:08.844Z,55.90
2018-07-06T18:06:37.336Z,55.80
2018-07-06T18:09:06.457Z,55.70
2018-07-06T18:11:35.026Z,55.80
2018-07-06T18:14:04.532Z,55.80
2018-07-06T18:16:33.097Z,55.70
2018-07-06T18:19:01.701Z,55.80
2018-07-06T18:21:30.371Z,55.80
2018-07-06T18:23:58.973Z,55.90
2018-07-06T18:26:27.517Z,55.90
2018-07-06T18:31:24.598Z,55.90
2018-07-06T18:33:53.080Z,55.90
2018-07-06T18:36:21.841Z,55.90
2018-07-06T18:38:50.411Z,56.00
2018-07-06T18:41:18.952Z,55.80
2018-07-06T18:43:47.509Z,55.90
2018-07-06T18:46:16.059Z,55.90
2018-07-06T18:48:44.573Z,56.00
2018-07-06T18:51:13.074Z,56.00
2018-07-06T18:53:42.500Z,56.00
2018-07-06T18:56:11.040Z,56.10
2018-07-06T18:58:39.929Z,56.00
2018-07-06T19:01:08.516Z,56.10
2018-07-06T19:03:37.179Z,56.20
2018-07-06T19:06:05.780Z,56.20
2018-07-06T19:08:34.488Z,56.30
2018-07-06T19:11:03.013Z,56.40
2018-07-06T19:13:31.560Z,56.30
2018-07-06T19:16:00.050Z,56.30
2018-07-06T19:18:28.603Z,56.30
2018-07-06T19:20:57.113Z,56.40
2018-07-06T19:23:25.928Z,56.40
2018-07-06T19:25:54.712Z,56.40
2018-07-06T19:28:23.229Z,56.30
2018-07-06T19:30:51.971Z,56.40
2018-07-06T19:33:20.892Z,56.30
2018-07-06T19:35:49.381Z,56.30
2018-07-06T19:38:20.832Z,56.30
2018-07-06T19:40:49.415Z,56.30
2018-07-06T19:43:17.942Z,56.30
2018-07-06T19:45:46.510Z,56.30
2018-07-06T19:48:15.081Z,56.30
2018-07-06T19:50:43.644Z,56.40
2018-07-06T19:53:12.120Z,56.40
2018-07-06T19:55:40.650Z,56.30
2018-07-06T19:58:09.263Z,56.40
2018-07-06T20:00:37.796Z,56.40
2018-07-06T20:03:06.352Z,56.50
2018-07-06T20:05:34.900Z,56.40
2018-07-06T20:08:03.531Z,56.40
2018-07-06T20:10:32.081Z,56.50
2018-07-06T20:13:00.640Z,56.50
2018-07-06T20:15:29.142Z,56.60
2018-07-06T20:17:57.675Z,56.60
2018-07-06T20:20:26.281Z,56.60
2018-07-06T20:22:54.785Z,56.60
2018-07-06T20:25:23.431Z,56.60
2018-07-06T20:27:52.636Z,56.60
2018-07-06T20:30:21.109Z,56.20
2018-07-06T20:32:49.659Z,56.60
2018-07-06T20:35:19.436Z,56.60
2018-07-06T20:37:47.959Z,57.20
2018-07-06T20:40:16.541Z,56.50
2018-07-06T20:42:45.492Z,56.50
2018-07-06T20:45:14.019Z,56.50
2018-07-06T20:47:42.569Z,56.50
2018-07-06T20:50:11.078Z,56.40
2018-07-06T20:52:39.568Z,56.50
2018-07-06T20:55:08.084Z,56.50
2018-07-06T20:57:37.228Z,56.40
2018-07-06T21:00:05.952Z,56.40
2018-07-06T21:02:34.508Z,56.50
2018-07-06T21:05:03.124Z,56.50
2018-07-06T21:09:59.940Z,56.50
2018-07-06T21:12:28.547Z,56.60
2018-07-06T21:14:57.245Z,56.50
2018-07-06T21:17:26.961Z,56.50
2018-07-06T21:19:55.528Z,56.50
2018-07-06T21:22:24.099Z,56.60
2018-07-06T21:24:53.132Z,56.50
2018-07-06T21:27:21.740Z,56.60
2018-07-06T21:29:50.387Z,56.60
2018-07-06T21:32:18.873Z,56.70
2018-07-06T21:34:47.671Z,56.60
2018-07-06T21:37:16.276Z,56.60
2018-07-06T21:39:44.828Z,56.70
2018-07-06T21:42:13.380Z,56.70
2018-07-06T21:44:41.935Z,56.70
2018-07-06T21:47:10.472Z,56.70
2018-07-06T21:49:39.036Z,56.70
2018-07-06T21:52:07.592Z,56.70
2018-07-06T21:54:36.148Z,56.70
2018-07-06T21:57:04.788Z,56.70
2018-07-06T22:02:01.599Z,57.70
2018-07-06T22:04:30.140Z,56.80
2018-07-06T22:06:58.711Z,56.70
2018-07-06T22:09:27.253Z,56.80
2018-07-06T22:11:55.776Z,56.80
2018-07-06T22:14:24.284Z,56.70
2018-07-06T22:16:52.793Z,56.80
2018-07-06T22:21:49.562Z,56.80
2018-07-06T22:26:46.289Z,56.80
2018-07-06T22:29:14.828Z,56.80
2018-07-06T22:36:39.639Z,56.60
2018-07-06T22:39:08.968Z,56.60
2018-07-06T22:41:37.533Z,56.60
2018-07-06T22:44:06.025Z,56.50
2018-07-06T22:46:35.387Z,56.50
2018-07-06T22:49:03.984Z,56.50
2018-07-06T22:51:32.504Z,56.40
2018-07-06T22:54:01.326Z,56.40
2018-07-06T22:56:30.090Z,56.30
2018-07-06T22:58:58.688Z,56.30
2018-07-06T23:01:27.236Z,56.30
2018-07-06T23:03:55.742Z,56.20
2018-07-06T23:06:24.360Z,56.20
2018-07-06T23:08:52.825Z,56.20
2018-07-06T23:11:21.291Z,56.20
2018-07-06T23:13:49.808Z,56.10
2018-07-06T23:16:18.292Z,56.00
2018-07-06T23:18:46.800Z,56.70
2018-07-06T23:21:15.388Z,56.10
2018-07-06T23:23:43.924Z,56.00
2018-07-06T23:26:12.452Z,55.90
2018-07-06T23:28:40.932Z,55.90
2018-07-06T23:33:37.629Z,55.90
2018-07-06T23:36:06.217Z,55.80
2018-07-06T23:38:34.736Z,55.80
2018-07-06T23:41:03.312Z,55.80
2018-07-06T23:43:32.137Z,55.80
2018-07-06T23:46:00.708Z,55.70
2018-07-06T23:48:29.273Z,55.70
2018-07-06T23:50:57.811Z,55.70
2018-07-06T23:53:26.288Z,55.70
2018-07-06T23:55:54.792Z,55.80
2018-07-06T23:58:23.336Z,55.70
